Sparta, OH

6:32 PM EDT on March 26, 2015 (GMT -0400)
Newark Heath | | Change Station
CLOSE
Current Station
Airport
Location: Newark Heath,
Elevation: 883 ft
Nearby Weather Stations

Elev 883 ft 40.03 °N, 82.46 °W | Updated 11 minutes ago

Overcast
Overcast
42 °F
Feels Like 36 °F
N
10
Wind Variable Wind from NW

Today
High -- | Low -- °F
--% Chance of Precip.
Yesterday
High -- | Low -- °F
Precip. -- in
7:24 AM 7:48 PM
Waxing Crescent, 46% visible
Pressure 29.86 in
Visibility 10.0 miles
Clouds Mostly Cloudy 1400 ft
Overcast 1900 ft
Windchill 36 °F
Dew Point 37 °F
Humidity 82%
Rainfall 0.55 in
Snow Depth Not available.
UV 0 out of 12
Pollen .70 out of 12
Air Quality Not available.
Flu Activity Not available.
SPECI KVTA 262221Z AUTO 31009KT 10SM BKN014 OVC019 06/03 A2986 RMK AO2 T00560028

More Conditions Fewer Conditions

Pressure 29.86 in
Visibility 10.0 miles
Clouds Mostly Cloudy 1400 ft
Overcast 1900 ft
Windchill 36 °F
Dew Point 37 °F
Humidity 82%
Rainfall 0.55 in
Snow Depth Not available.
UV 0 out of 12
Pollen .70 out of 12
Air Quality Not available.
Flu Activity Not available.
SPECI KVTA 262221Z AUTO 31009KT 10SM BKN014 OVC019 06/03 A2986 RMK AO2 T00560028

More Conditions Fewer Conditions

10-Day Weather Forecast

Almanac

Astronomy

Mar. 26, 2015 Rise Set
Actual Time
Civil Twilight
Nautical Twilight
Astronomical Twilight
Moon
Length of Visible Light
Length of Day
Tomorrow will be .
, % of the Moon is Illuminated

Today's Extremes

State Highs State Lows

Community

WunderPhotos

Upload Photos

1,808,628 photos uploaded!

WunderBlogs® & News

Nearby

Air Quality

  Air Quality AQ Index Pollutant
Not available.

Snow Depth

Station Depth Elevation

Earthquake Activity

City Distance Mag. Time & Date
Minimum magnitude displayed is 2.5.

Coastal Water Temperatures

Place Temperature

Stations

Nearby Weather Stations

Station Location Temp. Windchill Dew Point Humidity Wind Precip. Elev Updated Type